createdAt,value
2023-04-07T00:02:08.414Z,6.90
2023-04-07T00:05:06.449Z,10.00
2023-04-07T00:08:04.040Z,7.30
2023-04-07T00:11:01.912Z,7.00
2023-04-07T00:13:59.412Z,10.50
2023-04-07T00:16:57.353Z,10.70
2023-04-07T00:19:54.824Z,8.40
2023-04-07T00:22:52.675Z,7.90
2023-04-07T00:25:50.140Z,7.90
2023-04-07T00:28:47.976Z,8.30
2023-04-07T00:31:45.523Z,8.40
2023-04-07T00:34:43.694Z,9.30
2023-04-07T00:37:41.267Z,8.10
2023-04-07T00:40:39.029Z,9.00
2023-04-07T00:43:36.436Z,11.90
2023-04-07T00:46:34.542Z,9.40
2023-04-07T00:49:32.103Z,9.10
2023-04-07T00:52:30.745Z,8.50
2023-04-07T00:55:28.640Z,10.80
2023-04-07T00:58:26.112Z,10.10
2023-04-07T01:01:24.001Z,8.50
2023-04-07T01:04:21.942Z,7.90
2023-04-07T01:07:19.616Z,8.60
2023-04-07T01:10:17.978Z,8.40
2023-04-07T01:13:15.746Z,7.40
2023-04-07T01:16:13.234Z,10.20
2023-04-07T01:19:11.362Z,7.70
2023-04-07T01:22:09.309Z,8.60
2023-04-07T01:25:06.769Z,10.50
2023-04-07T01:28:04.860Z,7.90
2023-04-07T01:31:02.868Z,9.00
2023-04-07T01:34:00.678Z,9.80
2023-04-07T01:36:58.853Z,9.70
2023-04-07T01:39:56.370Z,9.40
2023-04-07T01:42:54.114Z,8.10
2023-04-07T01:45:51.596Z,12.30
2023-04-07T01:48:49.629Z,10.00
2023-04-07T01:51:50.750Z,8.80
2023-04-07T01:54:48.766Z,10.40
2023-04-07T01:57:46.181Z,10.10
2023-04-07T02:00:44.153Z,8.70
2023-04-07T02:03:41.790Z,9.40
2023-04-07T02:06:40.077Z,8.70
2023-04-07T02:09:37.492Z,7.70
2023-04-07T02:12:35.765Z,11.80
2023-04-07T02:15:33.303Z,8.30
2023-04-07T02:18:31.120Z,8.60
2023-04-07T02:21:28.610Z,8.80
2023-04-07T02:24:26.542Z,9.60
2023-04-07T02:27:24.001Z,9.90
2023-04-07T02:30:21.869Z,10.50
2023-04-07T02:33:19.327Z,9.70
2023-04-07T02:36:17.113Z,10.60
2023-04-07T02:39:14.567Z,7.90
2023-04-07T02:42:12.435Z,9.40
2023-04-07T02:45:10.509Z,9.30
2023-04-07T02:48:07.989Z,11.10
2023-04-07T02:51:05.955Z,9.00
2023-04-07T02:54:03.804Z,10.70
2023-04-07T02:57:01.691Z,11.70
2023-04-07T02:59:59.540Z,11.00
2023-04-07T03:02:57.117Z,11.50
2023-04-07T03:05:55.131Z,12.70
2023-04-07T03:08:52.594Z,10.80
2023-04-07T03:11:50.505Z,9.80
2023-04-07T03:14:47.975Z,15.00
2023-04-07T03:17:46.326Z,11.50
2023-04-07T03:20:44.655Z,10.10
2023-04-07T03:23:42.715Z,14.10
2023-04-07T03:26:40.214Z,10.40
2023-04-07T03:29:38.017Z,10.20
2023-04-07T03:32:35.910Z,13.10
2023-04-07T03:35:33.436Z,12.40
2023-04-07T03:38:31.306Z,14.00
2023-04-07T03:41:28.796Z,9.60
2023-04-07T03:44:26.665Z,9.80
2023-04-07T03:47:24.186Z,9.20
2023-04-07T03:50:22.252Z,11.20
2023-04-07T03:53:20.267Z,10.70
2023-04-07T03:56:18.174Z,11.50
2023-04-07T03:59:16.234Z,9.50
2023-04-07T04:02:14.281Z,15.30
2023-04-07T04:05:12.583Z,11.90
2023-04-07T04:08:10.050Z,9.60
2023-04-07T04:11:08.011Z,9.20
2023-04-07T04:14:07.125Z,9.20
2023-04-07T04:17:05.588Z,11.30
2023-04-07T04:20:03.906Z,11.00
2023-04-07T04:23:01.374Z,12.10
2023-04-07T04:26:00.720Z,12.80
2023-04-07T04:28:58.186Z,11.90
2023-04-07T04:31:56.334Z,12.50
2023-04-07T04:34:54.669Z,9.40
2023-04-07T04:37:52.073Z,11.10
2023-04-07T04:40:51.537Z,12.30
2023-04-07T04:43:49.311Z,9.90
2023-04-07T04:46:47.393Z,9.70
2023-04-07T04:49:45.378Z,9.70
2023-04-07T04:52:45.218Z,12.00
2023-04-07T04:55:47.632Z,11.70
2023-04-07T04:58:46.638Z,10.50
2023-04-07T05:01:44.900Z,8.20
2023-04-07T05:04:42.969Z,10.30
2023-04-07T05:07:42.254Z,10.70
2023-04-07T05:10:40.519Z,13.20
2023-04-07T05:13:37.952Z,10.80
2023-04-07T05:16:36.611Z,12.80
2023-04-07T05:19:34.479Z,11.70
2023-04-07T05:22:32.386Z,9.60
2023-04-07T05:25:29.830Z,9.60
2023-04-07T05:28:27.757Z,9.30
2023-04-07T05:31:25.574Z,8.90
2023-04-07T05:34:23.427Z,10.30
2023-04-07T05:37:21.320Z,12.70
2023-04-07T05:40:19.189Z,9.90
2023-04-07T05:43:17.226Z,9.80
2023-04-07T05:46:15.266Z,9.60
2023-04-07T05:49:19.750Z,9.30
2023-04-07T05:52:18.508Z,9.10
2023-04-07T05:55:15.960Z,10.40
2023-04-07T05:58:13.841Z,10.00
2023-04-07T06:01:11.719Z,10.90
2023-04-07T06:04:09.210Z,12.90
2023-04-07T06:07:07.028Z,9.40
2023-04-07T06:10:04.482Z,9.90
2023-04-07T06:13:02.520Z,10.70
2023-04-07T06:15:59.924Z,8.10
2023-04-07T06:18:57.416Z,11.30
2023-04-07T06:21:54.884Z,8.90
2023-04-07T06:24:53.530Z,8.70
2023-04-07T06:27:50.960Z,11.30
2023-04-07T06:30:48.561Z,8.80
2023-04-07T06:33:46.809Z,9.80
2023-04-07T06:36:45.585Z,8.40
2023-04-07T06:39:44.532Z,8.00
2023-04-07T06:42:42.009Z,9.70
2023-04-07T06:45:39.947Z,9.00
2023-04-07T06:48:37.400Z,11.70
2023-04-07T06:51:35.294Z,10.10
2023-04-07T06:54:32.765Z,7.60
2023-04-07T06:57:30.619Z,9.50
2023-04-07T07:00:30.372Z,10.60
2023-04-07T07:03:28.410Z,10.60
2023-04-07T07:06:26.289Z,10.70
2023-04-07T07:09:24.258Z,10.30
2023-04-07T07:12:21.713Z,7.90
2023-04-07T07:15:19.620Z,12.50
2023-04-07T07:18:17.130Z,13.80
2023-04-07T07:21:15.028Z,8.10
2023-04-07T07:24:12.503Z,10.00
2023-04-07T07:27:10.432Z,7.40
2023-04-07T07:30:08.211Z,9.70
2023-04-07T07:33:05.727Z,10.80
2023-04-07T07:36:03.296Z,9.60
2023-04-07T07:39:01.494Z,9.20
2023-04-07T07:41:59.288Z,8.80
2023-04-07T07:44:57.143Z,10.40
2023-04-07T07:47:54.616Z,8.00
2023-04-07T07:50:53.036Z,13.50
2023-04-07T07:53:50.598Z,9.20
2023-04-07T07:56:48.449Z,10.30
2023-04-07T07:59:47.010Z,10.00
2023-04-07T08:02:45.198Z,11.80
2023-04-07T08:05:42.798Z,10.30
2023-04-07T08:08:40.809Z,11.20
2023-04-07T08:11:38.236Z,9.10
2023-04-07T08:14:36.152Z,8.90
2023-04-07T08:17:34.049Z,10.20
2023-04-07T08:20:31.564Z,13.80
2023-04-07T08:23:29.652Z,10.70
2023-04-07T08:26:27.069Z,10.10
2023-04-07T08:29:24.973Z,17.90
2023-04-07T08:32:22.464Z,9.70
2023-04-07T08:35:20.516Z,11.60
2023-04-07T08:38:17.968Z,9.90
2023-04-07T08:41:15.730Z,11.80
2023-04-07T08:44:13.430Z,12.10
2023-04-07T08:47:12.218Z,14.20
2023-04-07T08:50:10.226Z,9.80
2023-04-07T08:53:07.717Z,14.50
2023-04-07T08:56:05.609Z,9.90
2023-04-07T08:59:03.526Z,11.20
2023-04-07T09:02:01.518Z,10.00
2023-04-07T09:04:59.002Z,8.60
2023-04-07T09:07:56.736Z,8.60
2023-04-07T09:10:54.210Z,10.10
2023-04-07T09:13:52.724Z,11.80
2023-04-07T09:16:50.188Z,9.90
2023-04-07T09:19:48.030Z,7.40
2023-04-07T09:22:46.243Z,8.80
2023-04-07T09:25:44.205Z,9.30
2023-04-07T09:28:41.704Z,8.70
2023-04-07T09:31:40.655Z,10.30
2023-04-07T09:34:39.089Z,10.40
2023-04-07T09:37:38.817Z,11.60
2023-04-07T09:40:36.702Z,13.10
2023-04-07T09:43:35.311Z,9.30
2023-04-07T09:46:33.658Z,10.00
2023-04-07T09:49:31.112Z,10.60
2023-04-07T09:52:29.049Z,8.80
2023-04-07T09:55:26.865Z,14.10
2023-04-07T09:58:27.762Z,11.00
2023-04-07T10:01:25.558Z,10.20
2023-04-07T10:04:23.829Z,9.80
2023-04-07T10:07:21.477Z,14.50
2023-04-07T10:10:19.485Z,9.50
2023-04-07T10:13:17.020Z,12.30
2023-04-07T10:16:15.055Z,11.00
2023-04-07T10:19:15.802Z,9.90
2023-04-07T10:22:13.785Z,9.60
2023-04-07T10:25:11.715Z,11.60
2023-04-07T10:28:09.181Z,11.20
2023-04-07T10:31:06.682Z,9.70
2023-04-07T10:34:04.705Z,9.40
2023-04-07T10:37:02.583Z,12.40
2023-04-07T10:40:00.019Z,10.60
2023-04-07T10:42:58.657Z,12.00
2023-04-07T10:45:56.625Z,11.30
2023-04-07T10:48:54.645Z,10.60
2023-04-07T10:51:52.367Z,9.90
2023-04-07T10:54:50.328Z,9.80
2023-04-07T10:57:48.008Z,12.00
2023-04-07T11:00:45.876Z,12.20
2023-04-07T11:03:43.641Z,11.50
2023-04-07T11:06:41.604Z,10.10
2023-04-07T11:09:39.173Z,11.80
2023-04-07T11:12:37.238Z,11.20
2023-04-07T11:15:36.547Z,10.50
2023-04-07T11:18:35.778Z,9.30
2023-04-07T11:21:33.606Z,11.10
2023-04-07T11:24:31.071Z,11.50
2023-04-07T11:27:28.702Z,9.90
2023-04-07T11:30:26.160Z,9.80
2023-04-07T11:33:24.119Z,12.70
2023-04-07T11:36:21.630Z,13.20
2023-04-07T11:39:19.678Z,11.10
2023-04-07T11:42:17.207Z,10.80
2023-04-07T11:45:15.909Z,10.60
2023-04-07T11:48:13.898Z,9.90
2023-04-07T11:51:11.888Z,12.30
2023-04-07T11:54:10.420Z,10.60
2023-04-07T11:57:10.937Z,13.70
2023-04-07T12:00:08.833Z,16.50
2023-04-07T12:03:07.045Z,10.90
2023-04-07T12:06:04.761Z,11.50
2023-04-07T12:09:02.721Z,11.10
2023-04-07T12:12:00.205Z,10.00
2023-04-07T12:14:58.028Z,10.20
2023-04-07T12:17:56.364Z,12.50
2023-04-07T12:20:53.800Z,10.60
2023-04-07T12:23:52.260Z,9.50
2023-04-07T12:26:49.928Z,12.50
2023-04-07T12:29:47.778Z,10.30
2023-04-07T12:32:45.268Z,11.30
2023-04-07T12:35:43.243Z,9.20
2023-04-07T12:38:40.719Z,10.40
2023-04-07T12:41:39.077Z,9.40
2023-04-07T12:44:36.676Z,10.00
2023-04-07T12:47:34.423Z,12.40
2023-04-07T12:50:31.871Z,10.20
2023-04-07T12:53:29.623Z,10.90
2023-04-07T12:56:28.078Z,11.10
2023-04-07T12:59:25.814Z,12.10
2023-04-07T13:02:23.764Z,10.30
2023-04-07T13:05:21.845Z,10.60
2023-04-07T13:08:21.435Z,9.30
2023-04-07T13:11:19.511Z,9.90
2023-04-07T13:14:16.989Z,9.90
2023-04-07T13:17:14.702Z,9.80
2023-04-07T13:20:12.247Z,9.90
2023-04-07T13:23:10.354Z,9.20
2023-04-07T13:26:08.052Z,9.60
2023-04-07T13:29:05.871Z,10.50
2023-04-07T13:32:03.328Z,8.20
2023-04-07T13:35:01.533Z,8.50
2023-04-07T13:37:59.195Z,8.90
2023-04-07T13:40:56.942Z,9.00
2023-04-07T13:43:54.631Z,8.80
2023-04-07T13:46:52.547Z,9.50
2023-04-07T13:49:51.051Z,8.70
2023-04-07T13:52:48.506Z,9.50
2023-04-07T13:55:46.308Z,13.40
2023-04-07T13:58:43.800Z,9.10
2023-04-07T14:01:41.612Z,11.20
2023-04-07T14:04:39.210Z,19.00
2023-04-07T14:07:36.852Z,9.90
2023-04-07T14:10:36.571Z,9.40
2023-04-07T14:13:34.038Z,8.30
2023-04-07T14:16:32.109Z,16.00
2023-04-07T14:19:29.749Z,8.30
2023-04-07T14:22:27.341Z,10.80
2023-04-07T14:25:24.741Z,8.30
2023-04-07T14:28:22.586Z,10.00
2023-04-07T14:31:20.197Z,9.20
2023-04-07T14:34:17.713Z,9.60
2023-04-07T14:37:16.891Z,7.80
2023-04-07T14:40:14.417Z,10.90
2023-04-07T14:43:12.725Z,11.10
2023-04-07T14:46:10.286Z,11.20
2023-04-07T14:49:10.404Z,14.40
2023-04-07T14:52:08.163Z,9.40
2023-04-07T14:55:05.625Z,11.90
2023-04-07T14:58:03.257Z,10.80
2023-04-07T15:01:00.727Z,9.80
2023-04-07T15:04:01.750Z,16.20
2023-04-07T15:06:59.415Z,11.10
2023-04-07T15:13:15.437Z,11.70
2023-04-07T15:16:13.301Z,12.60
2023-04-07T15:19:11.054Z,11.40
2023-04-07T15:22:08.525Z,11.60
2023-04-07T15:25:06.304Z,9.10
2023-04-07T15:28:04.058Z,9.80
2023-04-07T15:31:01.629Z,7.60
2023-04-07T15:33:59.242Z,8.90
2023-04-07T15:36:56.689Z,7.30
2023-04-07T15:39:54.639Z,6.70
2023-04-07T15:42:52.119Z,6.60
2023-04-07T15:45:49.934Z,6.90
2023-04-07T15:48:48.324Z,7.80
2023-04-07T15:51:45.811Z,6.60
2023-04-07T15:54:43.523Z,5.90
2023-04-07T15:57:41.042Z,7.40
2023-04-07T16:00:38.675Z,7.80
2023-04-07T16:03:36.717Z,7.70
2023-04-07T16:06:34.473Z,7.30
2023-04-07T16:09:33.090Z,9.70
2023-04-07T16:12:30.818Z,7.90
2023-04-07T16:15:39.440Z,7.50
2023-04-07T16:18:37.945Z,10.00
2023-04-07T16:21:35.666Z,6.90
2023-04-07T16:24:33.109Z,7.10
2023-04-07T16:27:30.865Z,10.70
2023-04-07T16:30:28.815Z,8.60
2023-04-07T16:33:28.150Z,9.40
2023-04-07T16:36:26.716Z,8.80
2023-04-07T16:39:25.093Z,11.20
2023-04-07T16:42:24.090Z,8.80
2023-04-07T16:45:21.535Z,9.90
2023-04-07T16:48:19.178Z,10.70
2023-04-07T16:51:16.885Z,11.20
2023-04-07T16:54:14.312Z,10.20
2023-04-07T16:57:12.360Z,9.20
2023-04-07T17:00:09.859Z,8.80
2023-04-07T17:03:07.842Z,9.80
2023-04-07T17:06:05.698Z,11.00
2023-04-07T17:09:03.361Z,9.90
2023-04-07T17:12:01.695Z,10.60
2023-04-07T17:14:59.133Z,12.00
2023-04-07T17:17:56.973Z,14.30
2023-04-07T17:20:54.420Z,11.50
2023-04-07T17:23:52.107Z,10.90
2023-04-07T17:26:49.640Z,10.30
2023-04-07T17:29:47.314Z,13.00
2023-04-07T17:32:44.850Z,11.20
2023-04-07T17:35:42.661Z,9.90
2023-04-07T17:38:40.528Z,11.10
2023-04-07T17:41:38.726Z,13.00
2023-04-07T17:44:36.428Z,11.30
2023-04-07T17:47:33.926Z,10.20
2023-04-07T17:50:32.297Z,13.10
2023-04-07T17:53:29.850Z,11.70
2023-04-07T17:56:27.987Z,12.70
2023-04-07T17:59:25.466Z,14.20
2023-04-07T18:02:23.308Z,14.00
2023-04-07T18:05:21.295Z,12.50
2023-04-07T18:08:18.761Z,10.80
2023-04-07T18:11:16.477Z,13.60
2023-04-07T18:14:14.218Z,11.80
2023-04-07T18:17:11.809Z,13.40
2023-04-07T18:20:09.853Z,11.30
2023-04-07T18:23:08.418Z,10.60
2023-04-07T18:26:08.368Z,11.70
2023-04-07T18:29:09.499Z,13.00
2023-04-07T18:32:08.162Z,16.10
2023-04-07T18:35:05.657Z,11.40
2023-04-07T18:38:05.187Z,9.70
2023-04-07T18:41:02.915Z,9.10
2023-04-07T18:44:00.929Z,9.30
2023-04-07T18:46:58.647Z,12.60
2023-04-07T18:49:58.224Z,10.50
2023-04-07T18:52:57.915Z,14.20
2023-04-07T18:55:55.832Z,9.20
2023-04-07T18:58:53.661Z,10.80
2023-04-07T19:01:51.222Z,8.90
2023-04-07T19:04:49.599Z,11.00
2023-04-07T19:07:47.418Z,12.40
2023-04-07T19:10:45.148Z,11.00
2023-04-07T19:13:43.681Z,11.10
2023-04-07T19:16:43.177Z,10.60
2023-04-07T19:19:42.719Z,9.20
2023-04-07T19:22:41.064Z,8.30
2023-04-07T19:25:40.591Z,8.40
2023-04-07T19:28:39.417Z,10.10
2023-04-07T19:31:37.769Z,9.40
2023-04-07T19:34:36.600Z,9.40
2023-04-07T19:37:34.626Z,9.90
2023-04-07T19:40:34.245Z,11.20
2023-04-07T19:43:32.047Z,11.60
2023-04-07T19:46:30.520Z,10.90
2023-04-07T19:49:28.776Z,8.50
2023-04-07T19:52:30.120Z,9.00
2023-04-07T19:55:28.230Z,8.70
2023-04-07T19:58:26.224Z,9.50
2023-04-07T20:01:24.814Z,7.90
2023-04-07T20:04:23.094Z,7.70
2023-04-07T20:07:21.110Z,10.20
2023-04-07T20:10:20.458Z,9.90
2023-04-07T20:13:17.931Z,9.80
2023-04-07T20:16:16.022Z,8.70
2023-04-07T20:19:13.669Z,9.00
2023-04-07T20:22:13.467Z,9.40
2023-04-07T20:25:13.085Z,10.10
2023-04-07T20:28:10.675Z,10.30
2023-04-07T20:31:08.342Z,22.30
2023-04-07T20:34:06.222Z,24.40
2023-04-07T20:37:03.941Z,18.20
2023-04-07T20:40:01.422Z,17.70
2023-04-07T20:43:00.199Z,22.00
2023-04-07T20:45:58.100Z,18.10
2023-04-07T20:48:56.843Z,14.80
2023-04-07T20:51:54.549Z,9.80
2023-04-07T20:54:52.040Z,10.20
2023-04-07T20:57:49.742Z,10.50
2023-04-07T21:00:47.178Z,9.90
2023-04-07T21:03:45.126Z,10.70
2023-04-07T21:06:43.516Z,9.60
2023-04-07T21:09:41.546Z,10.70
2023-04-07T21:12:39.485Z,19.80
2023-04-07T21:15:37.835Z,12.70
2023-04-07T21:18:36.196Z,11.20
2023-04-07T21:21:33.723Z,8.70
2023-04-07T21:24:32.397Z,11.60
2023-04-07T21:27:29.838Z,9.90
2023-04-07T21:30:27.462Z,13.40
2023-04-07T21:33:25.040Z,11.00
2023-04-07T21:36:22.770Z,11.60
2023-04-07T21:39:20.443Z,10.10
2023-04-07T21:42:17.842Z,9.20
2023-04-07T21:45:15.611Z,11.10
2023-04-07T21:48:13.560Z,8.80
2023-04-07T21:51:11.737Z,10.30
2023-04-07T21:54:09.398Z,10.30
2023-04-07T21:57:07.477Z,9.30
2023-04-07T22:03:24.858Z,11.20
2023-04-07T22:06:23.075Z,10.90
2023-04-07T22:09:20.778Z,9.90
2023-04-07T22:12:18.299Z,11.70
2023-04-07T22:15:15.957Z,10.80
2023-04-07T22:18:13.686Z,9.30
2023-04-07T22:21:11.557Z,10.00
2023-04-07T22:24:08.980Z,9.60
2023-04-07T22:27:06.734Z,13.70
2023-04-07T22:30:04.215Z,13.60
2023-04-07T22:33:01.990Z,12.00
2023-04-07T22:35:59.646Z,9.90
2023-04-07T22:38:57.059Z,11.60
2023-04-07T22:41:54.720Z,10.50
2023-04-07T22:44:52.185Z,9.80
2023-04-07T22:47:49.914Z,11.50
2023-04-07T22:50:47.347Z,13.30
2023-04-07T22:53:45.008Z,13.80
2023-04-07T22:56:42.402Z,13.60
2023-04-07T22:59:40.062Z,12.80
2023-04-07T23:02:38.028Z,11.50
2023-04-07T23:05:36.076Z,11.70
2023-04-07T23:08:33.919Z,12.00
2023-04-07T23:11:31.494Z,12.50
2023-04-07T23:14:29.439Z,14.70
2023-04-07T23:17:26.972Z,12.50
2023-04-07T23:20:24.550Z,13.40
2023-04-07T23:23:22.036Z,14.50
2023-04-07T23:26:19.649Z,16.90
2023-04-07T23:29:17.479Z,13.90
2023-04-07T23:32:15.023Z,18.10
2023-04-07T23:35:12.726Z,18.80
2023-04-07T23:38:11.107Z,21.80
2023-04-07T23:41:08.799Z,24.00
2023-04-07T23:44:07.037Z,25.00
2023-04-07T23:47:04.744Z,24.50
2023-04-07T23:50:03.179Z,21.80
2023-04-07T23:53:02.829Z,27.40
2023-04-07T23:56:03.473Z,25.00
2023-04-07T23:59:02.689Z,26.70
